createdAt,value
2019-02-19T00:00:40.798Z,69.26
2019-02-19T00:03:07.505Z,69.33
2019-02-19T00:05:34.254Z,69.40
2019-02-19T00:08:00.972Z,69.62
2019-02-19T00:10:27.682Z,69.73
2019-02-19T00:12:54.368Z,69.77
2019-02-19T00:15:20.975Z,69.81
2019-02-19T00:17:47.586Z,69.88
2019-02-19T00:20:14.199Z,69.87
2019-02-19T00:22:40.891Z,69.88
2019-02-19T00:25:07.507Z,69.84
2019-02-19T00:27:34.115Z,69.74
2019-02-19T00:30:00.823Z,69.89
2019-02-19T00:32:27.525Z,69.85
2019-02-19T00:34:54.145Z,69.81
2019-02-19T00:37:20.767Z,69.93
2019-02-19T00:39:47.377Z,69.93
2019-02-19T00:42:13.994Z,69.93
2019-02-19T00:44:40.603Z,70.08
2019-02-19T00:47:07.215Z,70.03
2019-02-19T00:49:33.818Z,69.93
2019-02-19T00:52:00.424Z,69.91
2019-02-19T00:54:27.146Z,69.89
2019-02-19T00:56:53.754Z,69.92
2019-02-19T00:59:20.372Z,69.92
2019-02-19T01:01:46.972Z,69.80
2019-02-19T01:04:13.597Z,69.86
2019-02-19T01:06:40.201Z,69.95
2019-02-19T01:09:06.964Z,69.77
2019-02-19T01:11:33.593Z,69.68
2019-02-19T01:14:00.318Z,69.76
2019-02-19T01:16:26.938Z,69.75
2019-02-19T01:18:53.598Z,69.75
2019-02-19T01:21:20.288Z,69.89
2019-02-19T01:23:46.907Z,70.01
2019-02-19T01:26:13.527Z,70.32
2019-02-19T01:28:40.150Z,70.49
2019-02-19T01:31:06.852Z,70.48
2019-02-19T01:33:33.474Z,70.47
2019-02-19T01:36:00.184Z,70.31
2019-02-19T01:38:26.792Z,70.37
2019-02-19T01:40:53.567Z,70.44
2019-02-19T01:43:20.289Z,70.17
2019-02-19T01:45:46.889Z,70.16
2019-02-19T01:48:13.494Z,70.44
2019-02-19T01:50:40.118Z,70.69
2019-02-19T01:53:06.825Z,70.80
2019-02-19T01:55:33.435Z,70.95
2019-02-19T01:58:00.048Z,71.02
2019-02-19T02:00:26.658Z,71.11
2019-02-19T02:02:53.260Z,71.21
2019-02-19T02:05:19.979Z,71.21
2019-02-19T02:07:46.593Z,71.27
2019-02-19T02:10:13.320Z,71.25
2019-02-19T02:12:39.929Z,71.21
2019-02-19T02:15:06.587Z,71.18
2019-02-19T02:17:33.295Z,71.12
2019-02-19T02:19:59.907Z,71.19
2019-02-19T02:22:26.601Z,71.18
2019-02-19T02:24:53.218Z,71.15
2019-02-19T02:27:19.923Z,70.98
2019-02-19T02:29:46.550Z,70.85
2019-02-19T02:32:13.275Z,70.81
2019-02-19T02:34:39.979Z,70.74
2019-02-19T02:37:06.606Z,70.73
2019-02-19T02:39:33.211Z,70.74
2019-02-19T02:41:59.941Z,70.72
2019-02-19T02:44:26.557Z,70.66
2019-02-19T02:46:53.279Z,70.69
2019-02-19T02:49:19.872Z,70.58
2019-02-19T02:51:46.525Z,70.33
2019-02-19T02:54:13.234Z,70.46
2019-02-19T02:56:39.837Z,70.91
2019-02-19T02:59:06.444Z,70.96
2019-02-19T03:01:33.051Z,70.97
2019-02-19T03:03:59.761Z,70.84
2019-02-19T03:06:44.611Z,70.61
2019-02-19T03:09:11.218Z,70.47
2019-02-19T03:11:37.834Z,70.43
2019-02-19T03:14:04.569Z,70.37
2019-02-19T03:16:31.265Z,70.54
2019-02-19T03:18:57.886Z,70.70
2019-02-19T03:21:24.503Z,70.66
2019-02-19T03:23:51.124Z,70.69
2019-02-19T03:26:17.837Z,70.77
2019-02-19T03:28:44.556Z,70.74
2019-02-19T03:31:11.174Z,70.90
2019-02-19T03:33:37.886Z,70.85
2019-02-19T03:36:04.492Z,70.92
2019-02-19T03:38:31.116Z,70.97
2019-02-19T03:40:57.819Z,70.90
2019-02-19T03:43:24.434Z,71.00
2019-02-19T03:45:51.153Z,71.13
2019-02-19T03:48:17.879Z,71.29
2019-02-19T03:50:44.494Z,71.41
2019-02-19T03:53:11.097Z,71.39
2019-02-19T03:55:37.802Z,71.36
2019-02-19T03:58:04.420Z,71.32
2019-02-19T04:00:31.059Z,71.30
2019-02-19T04:02:57.766Z,71.29
2019-02-19T04:05:24.519Z,71.27
2019-02-19T04:07:51.124Z,71.33
2019-02-19T04:10:17.748Z,71.13
2019-02-19T04:12:44.366Z,71.15
2019-02-19T04:15:11.116Z,71.29
2019-02-19T04:17:37.884Z,71.24
2019-02-19T04:20:04.732Z,71.17
2019-02-19T04:22:31.450Z,70.95
2019-02-19T04:24:58.057Z,70.90
2019-02-19T04:27:24.684Z,70.81
2019-02-19T04:29:51.297Z,70.86
2019-02-19T04:32:17.911Z,70.89
2019-02-19T04:34:44.615Z,71.26
2019-02-19T04:37:11.243Z,71.31
2019-02-19T04:39:37.881Z,71.31
2019-02-19T04:42:04.593Z,71.42
2019-02-19T04:44:31.216Z,71.40
2019-02-19T04:46:57.938Z,71.38
2019-02-19T04:49:24.550Z,71.45
2019-02-19T04:51:51.275Z,71.48
2019-02-19T04:54:17.879Z,71.44
2019-02-19T04:56:44.488Z,71.60
2019-02-19T04:59:11.100Z,71.69
2019-02-19T05:01:37.792Z,71.76
2019-02-19T05:04:04.388Z,71.77
2019-02-19T05:06:30.995Z,71.69
2019-02-19T05:08:57.596Z,71.74
2019-02-19T05:11:24.198Z,71.72
2019-02-19T05:13:50.804Z,71.79
2019-02-19T05:16:17.389Z,71.80
2019-02-19T05:18:43.999Z,71.87
2019-02-19T05:21:10.593Z,71.81
2019-02-19T05:23:37.212Z,71.89
2019-02-19T05:26:03.814Z,71.92
2019-02-19T05:28:30.433Z,71.91
2019-02-19T05:30:57.033Z,71.92
2019-02-19T05:33:23.668Z,71.87
2019-02-19T05:35:50.343Z,71.80
2019-02-19T05:38:16.973Z,71.88
2019-02-19T05:40:43.566Z,71.84
2019-02-19T05:43:10.258Z,71.71
2019-02-19T05:45:36.841Z,71.62
2019-02-19T05:48:05.265Z,71.64
2019-02-19T05:50:31.928Z,71.54
2019-02-19T05:52:58.526Z,71.33
2019-02-19T05:55:25.227Z,71.45
2019-02-19T05:57:51.836Z,71.45
2019-02-19T06:00:18.548Z,71.44
2019-02-19T06:02:45.128Z,71.53
2019-02-19T06:05:11.742Z,71.77
2019-02-19T06:07:38.446Z,72.70
2019-02-19T06:10:05.533Z,75.91
2019-02-19T06:12:32.232Z,75.90
2019-02-19T06:14:58.852Z,72.59
2019-02-19T06:17:25.438Z,70.28
2019-02-19T06:19:52.038Z,72.05
2019-02-19T06:22:18.630Z,70.85
2019-02-19T06:24:45.690Z,69.16
2019-02-19T06:27:12.299Z,68.14
2019-02-19T06:29:38.984Z,67.12
2019-02-19T06:32:05.570Z,64.90
2019-02-19T06:34:32.184Z,67.49
2019-02-19T06:36:58.790Z,66.02
2019-02-19T06:39:25.498Z,65.67
2019-02-19T06:41:52.220Z,66.05
2019-02-19T06:44:18.910Z,65.36
2019-02-19T06:46:45.608Z,65.68
2019-02-19T06:49:12.237Z,65.95
2019-02-19T06:51:38.951Z,66.30
2019-02-19T06:54:05.559Z,66.69
2019-02-19T06:56:32.158Z,67.39
2019-02-19T06:58:58.844Z,67.79
2019-02-19T07:01:54.072Z,68.10
2019-02-19T07:04:30.044Z,68.46
2019-02-19T07:06:56.625Z,68.78
2019-02-19T07:09:23.233Z,68.87
2019-02-19T07:11:49.829Z,69.01
2019-02-19T07:14:16.438Z,69.14
2019-02-19T07:16:43.160Z,69.34
2019-02-19T07:19:09.865Z,69.48
2019-02-19T07:21:36.477Z,69.57
2019-02-19T07:24:04.701Z,69.58
2019-02-19T07:26:31.466Z,69.45
2019-02-19T07:28:58.111Z,69.32
2019-02-19T07:31:24.815Z,69.53
2019-02-19T07:33:51.413Z,69.86
2019-02-19T07:36:18.020Z,69.77
2019-02-19T07:38:44.613Z,69.48
2019-02-19T07:41:11.235Z,69.65
2019-02-19T07:43:37.829Z,69.43
2019-02-19T07:46:04.554Z,69.38
2019-02-19T07:48:31.159Z,69.19
2019-02-19T07:50:57.769Z,69.50
2019-02-19T07:53:24.357Z,69.43
2019-02-19T07:55:50.978Z,68.99
2019-02-19T07:58:17.580Z,69.05
2019-02-19T08:00:44.188Z,68.48
2019-02-19T08:03:10.804Z,68.26
2019-02-19T08:05:37.516Z,67.90
2019-02-19T08:08:04.219Z,67.88
2019-02-19T08:10:30.813Z,67.51
2019-02-19T08:12:57.404Z,67.15
2019-02-19T08:15:24.004Z,66.82
2019-02-19T08:17:50.607Z,66.58
2019-02-19T08:20:17.240Z,66.27
2019-02-19T08:22:43.850Z,65.87
2019-02-19T08:25:10.472Z,65.27
2019-02-19T08:27:37.144Z,65.21
2019-02-19T08:30:03.876Z,64.43
2019-02-19T08:32:30.470Z,63.87
2019-02-19T08:34:57.156Z,63.62
2019-02-19T08:37:23.773Z,63.14
2019-02-19T08:39:50.468Z,62.69
2019-02-19T08:42:17.052Z,62.55
2019-02-19T08:44:43.636Z,62.14
2019-02-19T08:47:10.222Z,61.79
2019-02-19T08:49:36.841Z,61.42
2019-02-19T08:52:03.435Z,61.02
2019-02-19T08:54:30.028Z,60.77
2019-02-19T08:56:56.633Z,60.58
2019-02-19T08:59:23.242Z,60.51
2019-02-19T09:01:49.873Z,60.19
2019-02-19T09:04:16.484Z,61.72
2019-02-19T09:06:43.082Z,60.14
2019-02-19T09:09:09.660Z,59.41
2019-02-19T09:11:39.144Z,59.18
2019-02-19T09:14:05.774Z,58.67
2019-02-19T09:16:32.495Z,58.70
2019-02-19T09:18:59.213Z,58.32
2019-02-19T09:21:25.832Z,57.92
2019-02-19T09:23:52.433Z,57.35
2019-02-19T09:26:19.029Z,57.09
2019-02-19T09:28:45.747Z,56.27
2019-02-19T09:31:12.339Z,56.26
2019-02-19T09:33:38.968Z,55.68
2019-02-19T09:36:05.581Z,54.86
2019-02-19T09:38:32.193Z,54.04
2019-02-19T09:40:58.781Z,53.47
2019-02-19T09:43:25.477Z,53.49
2019-02-19T09:45:52.074Z,52.84
2019-02-19T09:48:18.689Z,52.32
2019-02-19T09:50:45.385Z,51.68
2019-02-19T09:53:12.014Z,51.11
2019-02-19T09:55:38.711Z,50.82
2019-02-19T09:58:05.437Z,50.72
2019-02-19T10:00:32.110Z,50.08
2019-02-19T10:02:58.721Z,49.82
2019-02-19T10:05:25.411Z,49.46
2019-02-19T10:07:52.023Z,49.45
2019-02-19T10:10:18.631Z,48.86
2019-02-19T10:12:45.242Z,48.16
2019-02-19T10:15:11.845Z,46.97
2019-02-19T10:17:38.549Z,45.97
2019-02-19T10:20:05.369Z,45.26
2019-02-19T10:22:31.966Z,45.20
2019-02-19T10:24:58.658Z,44.17
2019-02-19T10:27:25.268Z,43.34
2019-02-19T10:29:51.873Z,42.45
2019-02-19T10:32:18.586Z,42.08
2019-02-19T10:34:45.192Z,41.85
2019-02-19T10:37:11.796Z,40.94
2019-02-19T10:39:38.392Z,40.72
2019-02-19T10:42:05.028Z,40.19
2019-02-19T10:44:31.648Z,39.74
2019-02-19T10:46:58.380Z,39.58
2019-02-19T10:49:25.099Z,38.98
2019-02-19T10:51:51.766Z,38.75
2019-02-19T10:54:18.352Z,38.89
2019-02-19T10:56:44.960Z,38.47
2019-02-19T10:59:11.586Z,38.29
2019-02-19T11:01:38.195Z,37.94
2019-02-19T11:04:04.814Z,37.99
2019-02-19T11:06:31.410Z,38.14
2019-02-19T11:08:58.204Z,37.79
2019-02-19T11:11:24.873Z,37.96
2019-02-19T11:13:51.546Z,38.07
2019-02-19T11:16:18.168Z,38.38
2019-02-19T11:18:44.861Z,38.72
2019-02-19T11:21:19.326Z,38.81
2019-02-19T11:23:40.012Z,38.53
2019-02-19T11:26:06.618Z,38.65
2019-02-19T11:28:33.373Z,38.59
2019-02-19T11:30:59.979Z,38.18
2019-02-19T11:33:26.579Z,37.82
2019-02-19T11:35:54.816Z,37.44
2019-02-19T11:38:21.659Z,37.25
2019-02-19T11:40:48.262Z,37.02
2019-02-19T11:43:14.875Z,36.77
2019-02-19T11:45:41.468Z,36.90
2019-02-19T11:48:08.108Z,36.83
2019-02-19T11:50:34.717Z,36.78
2019-02-19T11:53:01.313Z,37.09
2019-02-19T11:55:27.927Z,37.02
2019-02-19T11:57:54.531Z,37.33
2019-02-19T12:00:25.210Z,37.38
2019-02-19T12:02:51.793Z,37.66
2019-02-19T12:05:18.422Z,37.74
2019-02-19T12:07:45.121Z,37.44
2019-02-19T12:10:12.164Z,37.79
2019-02-19T12:12:38.833Z,36.97
2019-02-19T12:15:05.540Z,37.46
2019-02-19T12:17:32.235Z,37.52
2019-02-19T12:19:58.841Z,37.52
2019-02-19T12:22:25.470Z,37.93
2019-02-19T12:24:52.083Z,37.60
2019-02-19T12:27:18.693Z,37.56
2019-02-19T12:29:45.311Z,37.97
2019-02-19T12:32:11.906Z,38.40
2019-02-19T12:34:38.518Z,37.96
2019-02-19T12:37:05.200Z,38.69
2019-02-19T12:39:31.806Z,38.27
2019-02-19T12:41:58.504Z,37.74
2019-02-19T12:44:25.125Z,37.33
2019-02-19T12:46:51.724Z,37.63
2019-02-19T12:49:18.336Z,37.68
2019-02-19T12:51:45.076Z,37.64
2019-02-19T12:54:11.704Z,37.80
2019-02-19T12:56:38.397Z,37.65
2019-02-19T12:59:05.024Z,37.82
2019-02-19T13:01:31.680Z,38.34
2019-02-19T13:03:58.379Z,37.90
2019-02-19T13:06:25.089Z,37.85
2019-02-19T13:08:51.692Z,37.72
2019-02-19T13:11:18.329Z,38.01
2019-02-19T13:13:45.034Z,38.11
2019-02-19T13:16:11.656Z,38.35
2019-02-19T13:18:38.302Z,37.72
2019-02-19T13:21:04.906Z,37.09
2019-02-19T13:23:31.515Z,39.08
2019-02-19T13:25:58.264Z,37.01
2019-02-19T13:28:24.956Z,36.99
2019-02-19T13:30:51.566Z,37.67
2019-02-19T13:33:23.312Z,38.04
2019-02-19T13:35:50.723Z,38.50
2019-02-19T13:38:17.452Z,38.71
2019-02-19T13:40:44.048Z,39.85
2019-02-19T13:43:10.659Z,39.14
2019-02-19T13:45:37.268Z,39.47
2019-02-19T13:48:05.817Z,39.10
2019-02-19T13:50:32.449Z,40.19
2019-02-19T13:53:17.083Z,40.74
2019-02-19T13:55:47.021Z,39.75
2019-02-19T13:58:13.701Z,39.29
2019-02-19T14:00:41.130Z,39.73
2019-02-19T14:03:07.728Z,39.83
2019-02-19T14:05:34.437Z,39.74
2019-02-19T14:08:01.128Z,39.58
2019-02-19T14:10:27.763Z,39.39
2019-02-19T14:12:54.362Z,39.21
2019-02-19T14:15:45.062Z,38.88
2019-02-19T14:18:12.723Z,38.91
2019-02-19T14:20:58.840Z,39.02
2019-02-19T14:24:00.205Z,38.77
2019-02-19T14:26:44.923Z,38.52
2019-02-19T14:29:37.103Z,38.01
2019-02-19T14:32:28.991Z,37.60
2019-02-19T14:35:33.345Z,37.61
2019-02-19T14:38:25.273Z,37.06
2019-02-19T14:41:07.961Z,36.71
2019-02-19T14:44:03.083Z,36.54
2019-02-19T14:46:48.151Z,36.75
2019-02-19T14:49:37.318Z,36.53
2019-02-19T14:52:17.766Z,36.56
2019-02-19T14:55:02.465Z,36.82
2019-02-19T14:57:54.640Z,37.10
2019-02-19T15:00:43.530Z,37.23
2019-02-19T15:03:47.937Z,37.35
2019-02-19T15:06:29.606Z,37.28
2019-02-19T15:09:30.777Z,37.14
2019-02-19T15:12:25.892Z,37.87
2019-02-19T15:15:20.618Z,38.90
2019-02-19T15:18:05.477Z,40.07
2019-02-19T15:20:43.557Z,41.57
2019-02-19T15:23:28.242Z,42.50
2019-02-19T15:26:13.220Z,43.38
2019-02-19T15:28:58.038Z,44.40
2019-02-19T15:31:42.223Z,45.25
2019-02-19T15:34:28.349Z,45.98
2019-02-19T15:37:07.849Z,46.57
2019-02-19T15:39:52.831Z,46.98
2019-02-19T15:42:42.000Z,47.11
2019-02-19T15:45:26.715Z,47.28
2019-02-19T15:48:12.869Z,47.59
2019-02-19T15:50:57.518Z,48.26
2019-02-19T15:53:43.762Z,48.90
2019-02-19T15:56:41.958Z,49.55
2019-02-19T15:59:19.859Z,50.04
2019-02-19T16:02:06.002Z,50.37
2019-02-19T16:04:51.929Z,50.75
2019-02-19T16:07:38.046Z,51.07
2019-02-19T16:10:24.716Z,51.58
2019-02-19T16:13:07.749Z,52.13
2019-02-19T16:15:57.053Z,52.71
2019-02-19T16:18:52.281Z,53.00
2019-02-19T16:21:37.141Z,53.06
2019-02-19T16:24:25.953Z,53.25
2019-02-19T16:27:12.089Z,53.72
2019-02-19T16:29:58.226Z,53.80
2019-02-19T16:32:35.449Z,54.29
2019-02-19T16:35:24.655Z,54.54
2019-02-19T16:38:20.105Z,54.60
2019-02-19T16:41:14.375Z,54.74
2019-02-19T16:44:09.794Z,54.95
2019-02-19T16:46:54.873Z,55.23
2019-02-19T16:49:47.364Z,55.74
2019-02-19T16:52:36.774Z,56.05
2019-02-19T16:55:16.011Z,56.36
2019-02-19T16:57:47.811Z,56.66
2019-02-19T17:00:22.851Z,56.80
2019-02-19T17:03:09.075Z,57.07
2019-02-19T17:06:01.104Z,57.41
2019-02-19T17:08:52.117Z,57.82
2019-02-19T17:11:45.374Z,57.93
2019-02-19T17:14:34.388Z,57.85
2019-02-19T17:17:23.446Z,58.01
2019-02-19T17:20:26.438Z,58.05
2019-02-19T17:23:06.364Z,58.07
2019-02-19T17:26:01.966Z,58.09
2019-02-19T17:28:48.200Z,58.10
2019-02-19T17:31:30.684Z,58.32
2019-02-19T17:34:16.050Z,58.57
2019-02-19T17:36:53.345Z,58.83
2019-02-19T17:39:30.855Z,59.02
2019-02-19T17:42:23.365Z,59.27
2019-02-19T17:45:09.621Z,59.44
2019-02-19T17:47:54.545Z,59.26
2019-02-19T17:50:58.838Z,59.45
2019-02-19T17:53:54.060Z,59.53
2019-02-19T17:56:43.350Z,59.38
2019-02-19T17:59:29.475Z,59.51
2019-02-19T18:02:10.030Z,59.48
2019-02-19T18:05:02.507Z,59.38
2019-02-19T18:08:07.113Z,59.82
2019-02-19T18:10:53.250Z,59.85
2019-02-19T18:13:59.824Z,59.54
2019-02-19T18:16:49.276Z,59.44
2019-02-19T18:19:16.125Z,59.67
2019-02-19T18:21:42.924Z,59.66
2019-02-19T18:24:09.771Z,59.77
2019-02-19T18:26:36.767Z,60.01
2019-02-19T18:29:03.564Z,60.33
2019-02-19T18:31:32.047Z,60.62
2019-02-19T18:33:58.860Z,60.84
2019-02-19T18:36:25.667Z,61.06
2019-02-19T18:38:52.475Z,61.17
2019-02-19T18:41:19.281Z,61.20
2019-02-19T18:43:47.162Z,61.24
2019-02-19T18:46:13.964Z,61.30
2019-02-19T18:48:40.723Z,61.37
2019-02-19T18:51:07.543Z,61.56
2019-02-19T18:53:34.321Z,61.65
2019-02-19T18:56:01.149Z,61.72
2019-02-19T18:58:28.241Z,61.73
2019-02-19T19:00:55.239Z,61.63
2019-02-19T19:03:22.079Z,61.84
2019-02-19T19:05:48.912Z,61.94
2019-02-19T19:08:16.169Z,61.75
2019-02-19T19:10:43.144Z,61.29
2019-02-19T19:13:10.003Z,60.99
2019-02-19T19:15:36.876Z,61.08
2019-02-19T19:18:04.618Z,62.03
2019-02-19T19:20:31.899Z,62.22
2019-02-19T19:22:58.973Z,61.50
2019-02-19T19:25:26.319Z,61.19
2019-02-19T19:27:55.435Z,61.17
2019-02-19T19:30:22.840Z,61.46
2019-02-19T19:32:51.053Z,61.27
2019-02-19T19:35:17.953Z,61.25
2019-02-19T19:37:44.811Z,61.17
2019-02-19T19:40:12.031Z,61.38
2019-02-19T19:42:39.368Z,61.43
2019-02-19T19:45:06.368Z,61.53
2019-02-19T19:47:33.408Z,61.83
2019-02-19T19:50:03.412Z,62.28
2019-02-19T19:52:32.762Z,62.39
2019-02-19T19:55:00.767Z,62.31
2019-02-19T19:57:27.960Z,62.16
2019-02-19T19:59:56.707Z,61.15
2019-02-19T20:02:23.780Z,60.18
2019-02-19T20:04:50.891Z,59.54
2019-02-19T20:07:17.905Z,58.93
2019-02-19T20:09:45.227Z,58.32
2019-02-19T20:12:13.609Z,57.76
2019-02-19T20:14:41.051Z,57.58
2019-02-19T20:17:10.182Z,57.28
2019-02-19T20:19:39.563Z,57.13
2019-02-19T20:22:10.470Z,56.79
2019-02-19T20:24:38.052Z,57.01
2019-02-19T20:27:06.494Z,57.23
2019-02-19T20:29:33.565Z,57.41
2019-02-19T20:32:00.827Z,57.69
2019-02-19T20:34:28.329Z,58.02
2019-02-19T20:36:56.374Z,58.44
2019-02-19T20:39:23.577Z,58.65
2019-02-19T20:41:50.584Z,58.91
2019-02-19T20:44:17.777Z,58.99
2019-02-19T20:46:52.885Z,59.43
2019-02-19T20:49:20.158Z,59.77
2019-02-19T20:51:47.178Z,60.29
2019-02-19T20:54:14.944Z,60.56
2019-02-19T20:56:41.808Z,61.41
2019-02-19T20:59:10.698Z,62.30
2019-02-19T21:01:37.529Z,62.70
2019-02-19T21:04:04.390Z,63.10
2019-02-19T21:06:32.215Z,63.58
2019-02-19T21:08:59.598Z,64.29
2019-02-19T21:11:27.702Z,64.58
2019-02-19T21:13:54.767Z,64.89
2019-02-19T21:16:21.760Z,65.79
2019-02-19T21:18:49.524Z,66.19
2019-02-19T21:21:16.555Z,66.83
2019-02-19T21:23:43.261Z,67.59
2019-02-19T21:26:10.049Z,68.08
2019-02-19T21:28:36.900Z,68.14
2019-02-19T21:31:04.822Z,68.47
2019-02-19T21:33:31.601Z,68.72
2019-02-19T21:35:58.379Z,69.16
2019-02-19T21:38:26.089Z,69.05
2019-02-19T21:40:52.854Z,69.08
2019-02-19T21:43:19.514Z,69.05
2019-02-19T21:45:46.279Z,68.91
2019-02-19T21:48:12.961Z,69.24
2019-02-19T21:50:39.722Z,69.40
2019-02-19T21:53:06.484Z,69.39
2019-02-19T21:55:33.228Z,69.65
2019-02-19T21:58:02.396Z,69.98
2019-02-19T22:00:29.131Z,70.62
2019-02-19T22:02:55.899Z,71.33
2019-02-19T22:05:22.541Z,71.53
2019-02-19T22:07:49.288Z,71.72
2019-02-19T22:10:16.048Z,71.64
2019-02-19T22:12:44.798Z,71.56
2019-02-19T22:15:11.540Z,71.46
2019-02-19T22:17:38.312Z,71.54
2019-02-19T22:20:07.000Z,71.90
2019-02-19T22:22:34.082Z,71.83
2019-02-19T22:25:00.882Z,71.80
2019-02-19T22:27:27.588Z,71.72
2019-02-19T22:29:54.225Z,71.54
2019-02-19T22:32:20.864Z,71.60
2019-02-19T22:34:47.478Z,72.08
2019-02-19T22:37:14.174Z,72.31
2019-02-19T22:39:40.792Z,72.71
2019-02-19T22:42:07.469Z,72.98
2019-02-19T22:44:34.084Z,72.98
2019-02-19T22:47:00.706Z,73.02
2019-02-19T22:49:27.293Z,73.17
2019-02-19T22:51:53.884Z,73.17
2019-02-19T22:54:34.103Z,73.20
2019-02-19T22:57:00.799Z,73.13
2019-02-19T22:59:27.491Z,73.21
2019-02-19T23:02:12.626Z,73.30
2019-02-19T23:04:39.219Z,73.35
2019-02-19T23:07:06.751Z,73.33
2019-02-19T23:09:33.365Z,73.17
2019-02-19T23:11:59.935Z,73.10
2019-02-19T23:14:26.535Z,73.28
2019-02-19T23:16:53.173Z,73.50
2019-02-19T23:19:19.770Z,73.69
2019-02-19T23:21:46.376Z,73.83
2019-02-19T23:24:13.077Z,73.93
2019-02-19T23:26:39.762Z,73.89
2019-02-19T23:29:06.355Z,73.98
2019-02-19T23:31:32.948Z,74.00
2019-02-19T23:33:59.551Z,73.91
2019-02-19T23:36:33.437Z,73.88
2019-02-19T23:39:00.024Z,73.82
2019-02-19T23:41:26.619Z,73.73
2019-02-19T23:43:53.205Z,73.79
2019-02-19T23:46:19.796Z,73.65
2019-02-19T23:48:46.397Z,73.59
2019-02-19T23:51:13.117Z,73.61
2019-02-19T23:53:39.730Z,73.73
2019-02-19T23:56:06.315Z,74.11
2019-02-19T23:58:32.921Z,74.17
